sensor_id;sensor_type;location;lat;lon;timestamp;P1;durP1;ratioP1;P2;durP2;ratioP2
30850;SDS011;17567;48.382;9.102;2024-01-11T05:38:40;26.63;;;11.57;;
30850;SDS011;17567;48.382;9.102;2024-01-11T05:43:43;25.70;;;12.50;;
30850;SDS011;17567;48.382;9.102;2024-01-11T05:48:44;30.50;;;11.20;;
30850;SDS011;17567;48.382;9.102;2024-01-11T05:53:45;24.23;;;11.97;;
30850;SDS011;17567;48.382;9.102;2024-01-11T05:58:46;25.00;;;10.43;;
30850;SDS011;17567;48.382;9.102;2024-01-11T06:03:48;25.83;;;11.73;;
30850;SDS011;17567;48.382;9.102;2024-01-11T06:08:50;21.90;;;10.90;;
30850;SDS011;17567;48.382;9.102;2024-01-11T06:13:51;25.20;;;11.97;;
30850;SDS011;17567;48.382;9.102;2024-01-11T06:18:52;25.53;;;11.07;;
30850;SDS011;17567;48.382;9.102;2024-01-11T06:23:53;24.10;;;10.80;;
30850;SDS011;17567;48.382;9.102;2024-01-11T06:28:55;19.50;;;9.53;;
30850;SDS011;17567;48.382;9.102;2024-01-11T06:33:56;20.40;;;9.50;;
30850;SDS011;17567;48.382;9.102;2024-01-11T06:38:57;21.73;;;10.90;;
30850;SDS011;17567;48.382;9.102;2024-01-11T06:43:58;23.63;;;10.27;;
30850;SDS011;17567;48.382;9.102;2024-01-11T06:48:59;29.33;;;10.30;;
30850;SDS011;17567;48.382;9.102;2024-01-11T06:54:03;20.60;;;9.73;;
30850;SDS011;17567;48.382;9.102;2024-01-11T06:59:07;21.50;;;9.63;;
30850;SDS011;17567;48.382;9.102;2024-01-11T07:04:08;21.47;;;10.47;;
30850;SDS011;17567;48.382;9.102;2024-01-11T07:09:09;15.77;;;9.17;;
30850;SDS011;17567;48.382;9.102;2024-01-11T07:14:11;18.93;;;9.30;;
30850;SDS011;17567;48.382;9.102;2024-01-11T07:19:12;24.63;;;10.07;;
30850;SDS011;17567;48.382;9.102;2024-01-11T07:24:13;23.23;;;10.97;;
30850;SDS011;17567;48.382;9.102;2024-01-11T07:29:14;27.50;;;11.73;;
30850;SDS011;17567;48.382;9.102;2024-01-11T07:34:15;23.07;;;10.57;;
30850;SDS011;17567;48.382;9.102;2024-01-11T07:39:17;23.20;;;12.47;;
30850;SDS011;17567;48.382;9.102;2024-01-11T07:44:18;26.23;;;13.20;;
30850;SDS011;17567;48.382;9.102;2024-01-11T07:49:20;22.43;;;11.17;;
30850;SDS011;17567;48.382;9.102;2024-01-11T07:54:21;19.27;;;10.87;;
30850;SDS011;17567;48.382;9.102;2024-01-11T07:59:22;17.73;;;10.03;;
30850;SDS011;17567;48.382;9.102;2024-01-11T08:04:23;32.07;;;13.23;;
30850;SDS011;17567;48.382;9.102;2024-01-11T08:09:25;19.80;;;10.27;;
30850;SDS011;17567;48.382;9.102;2024-01-11T08:14:26;16.50;;;9.03;;
30850;SDS011;17567;48.382;9.102;2024-01-11T08:19:27;21.00;;;10.20;;
30850;SDS011;17567;48.382;9.102;2024-01-11T08:24:31;35.63;;;14.57;;
30850;SDS011;17567;48.382;9.102;2024-01-11T08:29:35;34.83;;;14.60;;
30850;SDS011;17567;48.382;9.102;2024-01-11T08:34:36;27.77;;;13.33;;
30850;SDS011;17567;48.382;9.102;2024-01-11T08:39:37;48.23;;;20.10;;
30850;SDS011;17567;48.382;9.102;2024-01-11T08:44:42;31.67;;;14.67;;
30850;SDS011;17567;48.382;9.102;2024-01-11T08:49:43;59.37;;;23.80;;
30850;SDS011;17567;48.382;9.102;2024-01-11T08:54:44;57.33;;;22.63;;
30850;SDS011;17567;48.382;9.102;2024-01-11T08:59:45;83.50;;;29.53;;
30850;SDS011;17567;48.382;9.102;2024-01-11T09:04:46;68.50;;;26.57;;
30850;SDS011;17567;48.382;9.102;2024-01-11T09:09:47;70.87;;;26.67;;
30850;SDS011;17567;48.382;9.102;2024-01-11T09:14:48;66.17;;;25.30;;
30850;SDS011;17567;48.382;9.102;2024-01-11T09:19:49;74.03;;;28.20;;
30850;SDS011;17567;48.382;9.102;2024-01-11T09:24:51;108.37;;;30.33;;
30850;SDS011;17567;48.382;9.102;2024-01-11T09:29:53;83.50;;;31.73;;
30850;SDS011;17567;48.382;9.102;2024-01-11T09:34:55;71.57;;;28.50;;
30850;SDS011;17567;48.382;9.102;2024-01-11T09:39:56;70.67;;;28.13;;
30850;SDS011;17567;48.382;9.102;2024-01-11T09:44:57;61.83;;;28.17;;
30850;SDS011;17567;48.382;9.102;2024-01-11T09:49:59;63.73;;;27.00;;
30850;SDS011;17567;48.382;9.102;2024-01-11T09:55:01;54.40;;;24.40;;
30850;SDS011;17567;48.382;9.102;2024-01-11T10:00:04;67.00;;;29.37;;
30850;SDS011;17567;48.382;9.102;2024-01-11T10:05:07;63.23;;;26.53;;
30850;SDS011;17567;48.382;9.102;2024-01-11T10:10:09;67.33;;;27.23;;
30850;SDS011;17567;48.382;9.102;2024-01-11T10:15:12;70.50;;;29.50;;
30850;SDS011;17567;48.382;9.102;2024-01-11T10:20:21;57.80;;;27.50;;
30850;SDS011;17567;48.382;9.102;2024-01-11T10:25:23;61.57;;;26.07;;
30850;SDS011;17567;48.382;9.102;2024-01-11T10:30:27;59.17;;;26.40;;
30850;SDS011;17567;48.382;9.102;2024-01-11T10:35:29;65.60;;;28.83;;
30850;SDS011;17567;48.382;9.102;2024-01-11T10:40:30;72.00;;;29.57;;
30850;SDS011;17567;48.382;9.102;2024-01-11T10:45:32;79.43;;;34.70;;
30850;SDS011;17567;48.382;9.102;2024-01-11T10:50:43;75.53;;;32.30;;
30850;SDS011;17567;48.382;9.102;2024-01-11T10:55:45;89.30;;;34.17;;
30850;SDS011;17567;48.382;9.102;2024-01-11T11:00:47;111.50;;;34.83;;
30850;SDS011;17567;48.382;9.102;2024-01-11T11:05:50;88.77;;;34.50;;
30850;SDS011;17567;48.382;9.102;2024-01-11T11:10:57;85.63;;;34.87;;
30850;SDS011;17567;48.382;9.102;2024-01-11T11:15:59;118.50;;;35.70;;
30850;SDS011;17567;48.382;9.102;2024-01-11T11:21:00;107.60;;;34.63;;
30850;SDS011;17567;48.382;9.102;2024-01-11T11:26:01;83.43;;;33.57;;
30850;SDS011;17567;48.382;9.102;2024-01-11T11:31:02;80.20;;;34.07;;
30850;SDS011;17567;48.382;9.102;2024-01-11T11:36:03;78.57;;;33.07;;
30850;SDS011;17567;48.382;9.102;2024-01-11T11:41:04;83.27;;;33.77;;
30850;SDS011;17567;48.382;9.102;2024-01-11T11:46:05;108.50;;;38.10;;
30850;SDS011;17567;48.382;9.102;2024-01-11T11:51:11;84.60;;;34.20;;
30850;SDS011;17567;48.382;9.102;2024-01-11T11:56:13;87.07;;;33.53;;
30850;SDS011;17567;48.382;9.102;2024-01-11T12:01:16;88.87;;;35.60;;
30850;SDS011;17567;48.382;9.102;2024-01-11T12:06:18;85.90;;;35.00;;
30850;SDS011;17567;48.382;9.102;2024-01-11T12:11:21;83.93;;;32.93;;
30850;SDS011;17567;48.382;9.102;2024-01-11T12:16:29;84.77;;;35.40;;
30850;SDS011;17567;48.382;9.102;2024-01-11T12:21:32;80.67;;;33.20;;
30850;SDS011;17567;48.382;9.102;2024-01-11T12:26:33;93.23;;;37.13;;
30850;SDS011;17567;48.382;9.102;2024-01-11T12:31:34;76.03;;;32.43;;
30850;SDS011;17567;48.382;9.102;2024-01-11T12:36:35;89.23;;;37.27;;
30850;SDS011;17567;48.382;9.102;2024-01-11T12:41:36;83.53;;;35.13;;
30850;SDS011;17567;48.382;9.102;2024-01-11T12:46:37;103.33;;;41.13;;
30850;SDS011;17567;48.382;9.102;2024-01-11T12:51:38;108.80;;;44.60;;
30850;SDS011;17567;48.382;9.102;2024-01-11T12:56:40;101.97;;;41.93;;
30850;SDS011;17567;48.382;9.102;2024-01-11T13:01:42;92.60;;;40.47;;
30850;SDS011;17567;48.382;9.102;2024-01-11T13:06:43;86.20;;;38.20;;
30850;SDS011;17567;48.382;9.102;2024-01-11T13:11:44;80.93;;;37.33;;
30850;SDS011;17567;48.382;9.102;2024-01-11T13:16:45;79.50;;;35.87;;
30850;SDS011;17567;48.382;9.102;2024-01-11T13:21:48;81.73;;;37.90;;
30850;SDS011;17567;48.382;9.102;2024-01-11T13:26:49;82.87;;;38.47;;
30850;SDS011;17567;48.382;9.102;2024-01-11T13:31:50;84.90;;;38.93;;
30850;SDS011;17567;48.382;9.102;2024-01-11T13:36:51;76.87;;;38.13;;
30850;SDS011;17567;48.382;9.102;2024-01-11T13:41:52;81.07;;;39.87;;
30850;SDS011;17567;48.382;9.102;2024-01-11T13:46:53;77.90;;;39.17;;
30850;SDS011;17567;48.382;9.102;2024-01-11T13:51:54;74.87;;;39.23;;
30850;SDS011;17567;48.382;9.102;2024-01-11T13:56:55;77.40;;;39.53;;
30850;SDS011;17567;48.382;9.102;2024-01-11T14:01:57;75.00;;;36.13;;
30850;SDS011;17567;48.382;9.102;2024-01-11T14:06:58;76.53;;;37.50;;
30850;SDS011;17567;48.382;9.102;2024-01-11T14:11:59;79.53;;;41.30;;
30850;SDS011;17567;48.382;9.102;2024-01-11T14:17:00;78.53;;;38.60;;
30850;SDS011;17567;48.382;9.102;2024-01-11T14:22:01;72.13;;;36.83;;
30850;SDS011;17567;48.382;9.102;2024-01-11T14:27:03;71.50;;;35.17;;
30850;SDS011;17567;48.382;9.102;2024-01-11T14:32:04;70.50;;;36.03;;
30850;SDS011;17567;48.382;9.102;2024-01-11T14:37:05;71.43;;;36.27;;
30850;SDS011;17567;48.382;9.102;2024-01-11T14:42:06;70.17;;;35.80;;
30850;SDS011;17567;48.382;9.102;2024-01-11T14:47:09;93.83;;;46.43;;
30850;SDS011;17567;48.382;9.102;2024-01-11T14:52:10;75.00;;;36.00;;
30850;SDS011;17567;48.382;9.102;2024-01-11T14:57:11;82.70;;;38.20;;
30850;SDS011;17567;48.382;9.102;2024-01-11T15:02:13;68.87;;;35.03;;
30850;SDS011;17567;48.382;9.102;2024-01-11T15:07:14;70.27;;;34.90;;
30850;SDS011;17567;48.382;9.102;2024-01-11T15:12:15;72.77;;;34.77;;
30850;SDS011;17567;48.382;9.102;2024-01-11T15:17:19;68.70;;;34.00;;
30850;SDS011;17567;48.382;9.102;2024-01-11T15:22:21;74.70;;;35.50;;
30850;SDS011;17567;48.382;9.102;2024-01-11T15:27:22;68.83;;;34.07;;
30850;SDS011;17567;48.382;9.102;2024-01-11T15:32:23;71.10;;;32.43;;
30850;SDS011;17567;48.382;9.102;2024-01-11T15:37:24;66.83;;;33.80;;
30850;SDS011;17567;48.382;9.102;2024-01-11T15:42:29;62.90;;;30.97;;
30850;SDS011;17567;48.382;9.102;2024-01-11T15:47:30;65.93;;;32.40;;
30850;SDS011;17567;48.382;9.102;2024-01-11T15:52:31;65.77;;;31.40;;
30850;SDS011;17567;48.382;9.102;2024-01-11T15:57:32;72.47;;;31.87;;
30850;SDS011;17567;48.382;9.102;2024-01-11T16:02:33;69.47;;;34.47;;
30850;SDS011;17567;48.382;9.102;2024-01-11T16:07:34;70.43;;;31.90;;
30850;SDS011;17567;48.382;9.102;2024-01-11T16:12:36;65.33;;;30.13;;
30850;SDS011;17567;48.382;9.102;2024-01-11T16:17:37;65.57;;;29.97;;
30850;SDS011;17567;48.382;9.102;2024-01-11T16:22:39;61.93;;;28.33;;
30850;SDS011;17567;48.382;9.102;2024-01-11T16:27:40;72.30;;;31.87;;
30850;SDS011;17567;48.382;9.102;2024-01-11T16:32:41;70.53;;;30.23;;
30850;SDS011;17567;48.382;9.102;2024-01-11T16:37:43;62.77;;;27.37;;
30850;SDS011;17567;48.382;9.102;2024-01-11T16:42:44;68.30;;;28.43;;
30850;SDS011;17567;48.382;9.102;2024-01-11T16:47:45;78.03;;;34.80;;
30850;SDS011;17567;48.382;9.102;2024-01-11T16:52:46;66.73;;;31.97;;
30850;SDS011;17567;48.382;9.102;2024-01-11T16:57:47;69.30;;;31.27;;
30850;SDS011;17567;48.382;9.102;2024-01-11T17:02:48;62.87;;;29.57;;
30850;SDS011;17567;48.382;9.102;2024-01-11T17:07:49;65.33;;;29.07;;
30850;SDS011;17567;48.382;9.102;2024-01-11T17:12:50;63.40;;;30.00;;
30850;SDS011;17567;48.382;9.102;2024-01-11T17:17:52;77.97;;;31.20;;
30850;SDS011;17567;48.382;9.102;2024-01-11T17:22:53;73.07;;;32.60;;
30850;SDS011;17567;48.382;9.102;2024-01-11T17:27:54;58.17;;;28.23;;
30850;SDS011;17567;48.382;9.102;2024-01-11T17:32:55;74.40;;;30.50;;
30850;SDS011;17567;48.382;9.102;2024-01-11T17:37:56;63.67;;;29.03;;
30850;SDS011;17567;48.382;9.102;2024-01-11T17:42:57;61.00;;;28.17;;
30850;SDS011;17567;48.382;9.102;2024-01-11T17:47:58;67.00;;;31.37;;
30850;SDS011;17567;48.382;9.102;2024-01-11T17:52:59;64.03;;;30.03;;
30850;SDS011;17567;48.382;9.102;2024-01-11T17:58:01;84.03;;;34.50;;
30850;SDS011;17567;48.382;9.102;2024-01-11T18:03:02;63.83;;;30.63;;
30850;SDS011;17567;48.382;9.102;2024-01-11T18:08:04;82.43;;;38.03;;
30850;SDS011;17567;48.382;9.102;2024-01-11T18:13:05;81.00;;;34.83;;
30850;SDS011;17567;48.382;9.102;2024-01-11T18:18:06;127.37;;;47.17;;
30850;SDS011;17567;48.382;9.102;2024-01-11T18:23:07;87.00;;;36.63;;
30850;SDS011;17567;48.382;9.102;2024-01-11T18:28:08;90.37;;;38.20;;
30850;SDS011;17567;48.382;9.102;2024-01-11T18:33:09;82.23;;;34.27;;
30850;SDS011;17567;48.382;9.102;2024-01-11T18:38:10;77.47;;;32.63;;
30850;SDS011;17567;48.382;9.102;2024-01-11T18:43:11;71.50;;;32.20;;
30850;SDS011;17567;48.382;9.102;2024-01-11T18:48:12;66.57;;;28.97;;
30850;SDS011;17567;48.382;9.102;2024-01-11T18:53:13;63.60;;;25.87;;
30850;SDS011;17567;48.382;9.102;2024-01-11T18:58:16;62.63;;;29.27;;
30850;SDS011;17567;48.382;9.102;2024-01-11T19:03:17;70.23;;;29.57;;
30850;SDS011;17567;48.382;9.102;2024-01-11T19:08:19;63.57;;;28.00;;
30850;SDS011;17567;48.382;9.102;2024-01-11T19:13:20;79.67;;;34.63;;
30850;SDS011;17567;48.382;9.102;2024-01-11T19:18:22;73.40;;;34.90;;
30850;SDS011;17567;48.382;9.102;2024-01-11T19:23:23;65.70;;;28.57;;
30850;SDS011;17567;48.382;9.102;2024-01-11T19:28:27;72.40;;;33.10;;
30850;SDS011;17567;48.382;9.102;2024-01-11T19:33:28;65.63;;;29.13;;
30850;SDS011;17567;48.382;9.102;2024-01-11T19:38:30;63.20;;;27.87;;
30850;SDS011;17567;48.382;9.102;2024-01-11T19:43:34;63.27;;;27.53;;
30850;SDS011;17567;48.382;9.102;2024-01-11T19:48:38;71.77;;;31.70;;
30850;SDS011;17567;48.382;9.102;2024-01-11T19:53:39;91.50;;;33.70;;
30850;SDS011;17567;48.382;9.102;2024-01-11T19:58:40;83.63;;;34.30;;
30850;SDS011;17567;48.382;9.102;2024-01-11T20:03:42;65.67;;;27.70;;
30850;SDS011;17567;48.382;9.102;2024-01-11T20:08:43;66.10;;;30.37;;
30850;SDS011;17567;48.382;9.102;2024-01-11T20:13:44;62.87;;;28.50;;
30850;SDS011;17567;48.382;9.102;2024-01-11T20:18:47;69.97;;;28.07;;
30850;SDS011;17567;48.382;9.102;2024-01-11T20:23:48;61.43;;;28.83;;
30850;SDS011;17567;48.382;9.102;2024-01-11T20:28:49;65.13;;;29.60;;
30850;SDS011;17567;48.382;9.102;2024-01-11T20:33:52;74.07;;;32.80;;
30850;SDS011;17567;48.382;9.102;2024-01-11T20:38:55;88.00;;;35.57;;
30850;SDS011;17567;48.382;9.102;2024-01-11T20:43:57;69.53;;;29.70;;
30850;SDS011;17567;48.382;9.102;2024-01-11T20:48:58;67.13;;;31.13;;
30850;SDS011;17567;48.382;9.102;2024-01-11T20:54:00;80.30;;;32.90;;
30850;SDS011;17567;48.382;9.102;2024-01-11T20:59:01;81.47;;;35.20;;
30850;SDS011;17567;48.382;9.102;2024-01-11T21:04:02;91.73;;;38.60;;
30850;SDS011;17567;48.382;9.102;2024-01-11T21:09:03;102.63;;;39.43;;
30850;SDS011;17567;48.382;9.102;2024-01-11T21:14:06;84.57;;;35.90;;
30850;SDS011;17567;48.382;9.102;2024-01-11T21:19:07;74.47;;;32.03;;
30850;SDS011;17567;48.382;9.102;2024-01-11T21:24:08;69.80;;;29.93;;
30850;SDS011;17567;48.382;9.102;2024-01-11T21:29:09;86.73;;;35.07;;
30850;SDS011;17567;48.382;9.102;2024-01-11T21:34:10;83.60;;;35.30;;
30850;SDS011;17567;48.382;9.102;2024-01-11T21:39:11;82.93;;;32.50;;
30850;SDS011;17567;48.382;9.102;2024-01-11T21:44:12;66.73;;;29.57;;
30850;SDS011;17567;48.382;9.102;2024-01-11T21:49:13;63.23;;;28.00;;
30850;SDS011;17567;48.382;9.102;2024-01-11T21:54:18;74.10;;;30.30;;
30850;SDS011;17567;48.382;9.102;2024-01-11T21:59:19;75.60;;;30.23;;
30850;SDS011;17567;48.382;9.102;2024-01-11T22:04:20;64.03;;;28.30;;
30850;SDS011;17567;48.382;9.102;2024-01-11T22:09:21;51.57;;;24.07;;
30850;SDS011;17567;48.382;9.102;2024-01-11T22:14:22;59.40;;;25.93;;
30850;SDS011;17567;48.382;9.102;2024-01-11T22:19:23;50.23;;;22.87;;
30850;SDS011;17567;48.382;9.102;2024-01-11T22:24:24;49.70;;;22.67;;
30850;SDS011;17567;48.382;9.102;2024-01-11T22:29:25;57.20;;;24.40;;
30850;SDS011;17567;48.382;9.102;2024-01-11T22:34:26;55.83;;;23.70;;
30850;SDS011;17567;48.382;9.102;2024-01-11T22:39:28;48.37;;;19.87;;
30850;SDS011;17567;48.382;9.102;2024-01-11T22:44:29;42.43;;;19.70;;
30850;SDS011;17567;48.382;9.102;2024-01-11T22:49:30;41.27;;;19.53;;
30850;SDS011;17567;48.382;9.102;2024-01-11T22:54:31;46.53;;;19.97;;
30850;SDS011;17567;48.382;9.102;2024-01-11T22:59:32;50.67;;;20.97;;
30850;SDS011;17567;48.382;9.102;2024-01-11T23:04:34;44.37;;;21.10;;
30850;SDS011;17567;48.382;9.102;2024-01-11T23:09:35;70.33;;;26.97;;
30850;SDS011;17567;48.382;9.102;2024-01-11T23:14:36;49.47;;;22.70;;
30850;SDS011;17567;48.382;9.102;2024-01-11T23:19:37;53.60;;;22.47;;
30850;SDS011;17567;48.382;9.102;2024-01-11T23:24:38;46.07;;;20.63;;
30850;SDS011;17567;48.382;9.102;2024-01-11T23:29:39;45.07;;;20.53;;
30850;SDS011;17567;48.382;9.102;2024-01-11T23:34:40;39.60;;;18.17;;
30850;SDS011;17567;48.382;9.102;2024-01-11T23:39:41;44.00;;;19.20;;
30850;SDS011;17567;48.382;9.102;2024-01-11T23:44:43;48.33;;;22.77;;
30850;SDS011;17567;48.382;9.102;2024-01-11T23:49:44;59.33;;;23.93;;
30850;SDS011;17567;48.382;9.102;2024-01-11T23:54:45;56.57;;;23.53;;
30850;SDS011;17567;48.382;9.102;2024-01-11T23:59:46;46.57;;;20.37;;
